North Walsham, United Kingdom
Current Conditions -  °F | °C
As of 5:20 AM on Sunday 23 Nov 2014 (Local Time) from EGSH Reporting Station
Moderate Rain Moderate Rain  
Wind Chill: 54°   Ceiling: Unl
Heat Index: 54°   Visibility: 0.15mi
Dew Point: 54°   Wind: 1mph
Humidity: 100%   Direction: 80°E
Pressure: 29.94"   Gusts: NA
Location:  52.82°N, 1.39°E
Report Text: EGSH 230520Z AUTO 08001KT 0250 RA OVC000/// 12/12 Q1014
Loading
Personal Weather Stations






























Interactive Weather Map New forecast layout! Learn more

10-Day Weather Forecast

Advertisements
Track Severe Weather on mobile